Terminal Aerodrome Forecast
Issued by NWS

Home | Current Version | Previous Version | Text Only | Print | Product List | Glossary On
Versions: 1 2 3 4 5 6 7 8 9 10 11 12 13 14 15 16 17 18 19 20 21 22 23 24 25 26 27 28
000
FTUS42 KGSP 030755 AAB
TAFHKY
TAF AMD
KHKY 030755Z 0308/0406 VRB05KT P6SM BKN003
      TEMPO 0308/0309 3/4SM -TSRA OVC002CB
     FM030900 VRB03KT 5SM -RA BR OVC020
     FM031300 26006G15KT P6SM VCSH BKN045
      TEMPO 0315/0318 4SM -TSRA OVC025CB
     FM040000 35004KT P6SM BKN050=

USA.gov is the U.S. government's official web portal to all federal, state and local government web resources and services.